Time;durP1;ratioP1;P1;durP2;ratioP2;P2;SDS_P1;SDS_P2;PMS_P1;PMS_P2;Temp;Humidity;BMP_temperature;BMP_pressure;BME280_temperature;BME280_humidity;BME280_pressure;Samples;Min_cycle;Max_cycle;Signal;HPM_P1;HPM_P2
2023/01/16 00:00:12;;;;;;;99.27;44.63;;;3.50;99.90;;;;;;10401531;28;20491;-81
2023/01/16 00:05:13;;;;;;;100.37;42.30;;;3.40;99.90;;;;;;10409730;28;20091;-81
2023/01/16 00:10:16;;;;;;;101.13;44.97;;;3.20;99.90;;;;;;10413256;28;20074;-79
2023/01/16 00:15:17;;;;;;;111.67;49.30;;;3.20;99.90;;;;;;10403389;28;20049;-79
2023/01/16 00:20:17;;;;;;;105.17;46.70;;;3.10;99.90;;;;;;10410887;28;20128;-80
2023/01/16 00:25:18;;;;;;;107.97;46.00;;;2.90;99.90;;;;;;10399970;28;20407;-80
2023/01/16 00:30:19;;;;;;;88.33;36.67;;;2.70;99.90;;;;;;10401660;28;20025;-79
2023/01/16 00:35:20;;;;;;;85.30;35.83;;;2.50;99.90;;;;;;10406418;28;20595;-79
2023/01/16 00:40:22;;;;;;;107.30;44.20;;;2.50;99.90;;;;;;10405977;28;20041;-79
2023/01/16 00:45:22;;;;;;;104.37;40.53;;;2.40;99.90;;;;;;10400136;28;20049;-79
2023/01/16 00:50:23;;;;;;;124.67;48.43;;;2.30;99.90;;;;;;10399480;28;20029;-79
2023/01/16 00:55:24;;;;;;;121.13;46.70;;;2.20;99.90;;;;;;10412170;28;20034;-79
2023/01/16 01:00:25;;;;;;;148.47;56.67;;;2.10;99.90;;;;;;10399309;28;20381;-79
2023/01/16 01:05:26;;;;;;;173.37;61.47;;;1.90;99.90;;;;;;10403340;28;20794;-79
2023/01/16 01:10:27;;;;;;;185.63;68.37;;;1.90;99.90;;;;;;10409300;28;20713;-79
2023/01/16 01:15:27;;;;;;;176.40;63.97;;;1.80;99.90;;;;;;10409226;28;20035;-81
2023/01/16 01:20:28;;;;;;;187.30;66.17;;;1.70;99.90;;;;;;10415872;28;20030;-81
2023/01/16 01:25:28;;;;;;;238.80;75.43;;;1.70;99.90;;;;;;10408151;28;20037;-81
2023/01/16 01:30:29;;;;;;;192.50;63.93;;;1.70;99.90;;;;;;10416069;28;20025;-79
2023/01/16 01:35:30;;;;;;;136.40;50.17;;;1.70;99.90;;;;;;10414828;28;20037;-78
2023/01/16 01:40:32;;;;;;;219.67;64.27;;;1.50;99.90;;;;;;10406750;28;20033;-79
2023/01/16 01:45:33;;;;;;;184.13;62.13;;;1.40;99.90;;;;;;10406023;28;20040;-80
2023/01/16 01:50:39;;;;;;;166.77;53.90;;;1.40;99.90;;;;;;10419226;28;20094;-80
2023/01/16 01:55:41;;;;;;;155.43;55.55;;;1.40;99.90;;;;;;10404871;28;20030;-79
2023/01/16 02:00:42;;;;;;;161.60;54.17;;;1.40;99.90;;;;;;10404720;28;20665;-80
2023/01/16 02:05:48;;;;;;;102.23;38.27;;;1.40;99.90;;;;;;10389834;28;20120;-79
2023/01/16 02:10:51;;;;;;;;;;;1.40;99.90;;;;;;10414694;28;20054;-79
2023/01/16 02:21:46;;;;;;;123.10;41.67;;;1.40;99.90;;;;;;10389919;28;20079;-80
2023/01/16 02:27:04;;;;;;;197.47;54.40;;;1.40;99.90;;;;;;10365219;28;20045;-80
2023/01/16 02:32:14;;;;;;;189.00;54.80;;;1.30;99.90;;;;;;10403717;28;20609;-79
2023/01/16 02:37:44;;;;;;;118.70;42.83;;;1.30;99.90;;;;;;10403587;28;20029;-79
2023/01/16 02:43:00;;;;;;;259.30;69.90;;;1.30;99.90;;;;;;10394719;28;20722;-79
2023/01/16 02:48:37;;;;;;;245.57;69.40;;;1.20;99.90;;;;;;10406890;28;20044;-80
2023/01/16 02:54:03;;;;;;;393.13;100.38;;;1.20;99.90;;;;;;10411776;28;20029;-78
2023/01/16 02:59:04;;;;;;;141.75;51.65;;;1.20;99.90;;;;;;10391433;28;20025;-79
2023/01/16 03:04:42;;;;;;;431.97;94.67;;;1.20;99.90;;;;;;10405670;28;20392;-80
2023/01/16 03:09:42;;;;;;;292.70;81.57;;;1.10;99.90;;;;;;10405220;28;20132;-78
2023/01/16 03:14:50;;;;;;;236.47;72.73;;;1.00;99.90;;;;;;10413360;28;20473;-79
2023/01/16 03:20:03;;;;;;;201.27;67.67;;;1.10;99.90;;;;;;10413403;28;20033;-79
2023/01/16 03:25:30;;;;;;;172.00;57.70;;;1.10;99.90;;;;;;10402777;28;20041;-79
2023/01/16 03:30:52;;;;;;;200.67;65.73;;;1.10;99.90;;;;;;10398208;28;20055;-79
2023/01/16 03:36:01;;;;;;;146.70;50.83;;;1.10;99.90;;;;;;10404904;28;20041;-79
2023/01/16 03:41:05;;;;;;;130.40;53.00;;;1.20;99.90;;;;;;10387399;28;20041;-81
2023/01/16 03:46:14;;;;;;;161.80;63.17;;;1.30;99.90;;;;;;10401424;28;20096;-79
2023/01/16 03:51:22;;;;;;;139.43;52.03;;;1.50;99.90;;;;;;10400027;28;20033;-79
2023/01/16 03:57:07;;;;;;;148.33;60.30;;;1.60;99.90;;;;;;10405003;28;20373;-79
2023/01/16 04:02:13;;;;;;;131.00;47.70;;;1.70;99.90;;;;;;10330902;28;20056;-79
2023/01/16 04:07:26;;;;;;;94.65;34.65;;;1.70;99.90;;;;;;10402139;28;20564;-79
2023/01/16 04:12:37;;;;;;;143.90;51.37;;;1.80;99.90;;;;;;10399579;28;20046;-79
2023/01/16 04:17:39;;;;;;;103.27;42.17;;;1.80;99.90;;;;;;10400849;28;20034;-79
2023/01/16 04:22:41;;;;;;;105.77;41.30;;;1.70;99.90;;;;;;10407937;28;20037;-79
2023/01/16 04:27:41;;;;;;;123.57;45.40;;;1.70;99.90;;;;;;10403757;28;20426;-80
2023/01/16 04:32:42;;;;;;;143.10;55.23;;;1.70;99.90;;;;;;10408642;28;20098;-80
2023/01/16 04:37:43;;;;;;;219.10;88.97;;;1.70;99.90;;;;;;10399607;28;20116;-78
2023/01/16 04:42:43;;;;;;;234.00;96.00;;;1.70;99.90;;;;;;10421046;28;20075;-79
2023/01/16 04:47:49;;;;;;;172.93;65.30;;;1.70;99.90;;;;;;10412535;28;20476;-80
2023/01/16 04:52:49;;;;;;;116.57;46.85;;;1.70;99.90;;;;;;10408151;28;20120;-80
2023/01/16 04:57:50;;;;;;;112.83;46.23;;;1.70;99.90;;;;;;10398289;28;20038;-80
2023/01/16 05:02:52;;;;;;;111.70;44.17;;;1.60;99.90;;;;;;10403442;28;20049;-81
2023/01/16 05:13:12;;;;;;;104.03;45.13;;;1.60;99.90;;;;;;10396011;28;20061;-78
2023/01/16 05:18:13;;;;;;;140.93;61.87;;;1.50;99.90;;;;;;10403447;28;20034;-82
2023/01/16 05:23:14;;;;;;;285.47;122.17;;;1.50;99.90;;;;;;10417574;28;20056;-80
2023/01/16 05:28:14;;;;;;;235.57;95.07;;;1.50;99.90;;;;;;10389406;28;20022;-78
2023/01/16 05:33:15;;;;;;;168.40;69.40;;;1.50;99.90;;;;;;10405054;28;20029;-79
2023/01/16 05:38:15;;;;;;;121.80;53.00;;;1.40;99.90;;;;;;10406517;28;20022;-79
2023/01/16 05:43:16;;;;;;;130.53;50.23;;;1.40;99.90;;;;;;10392990;28;20045;-79
2023/01/16 05:48:16;;;;;;;95.40;42.33;;;1.30;99.90;;;;;;10405979;28;20036;-80
2023/01/16 05:53:17;;;;;;;103.20;42.03;;;1.30;99.90;;;;;;10404920;28;20029;-79
2023/01/16 05:58:18;;;;;;;95.47;40.67;;;1.30;99.90;;;;;;10405607;28;20072;-80
2023/01/16 06:03:18;;;;;;;126.20;48.20;;;1.30;99.90;;;;;;10404921;28;20041;-80
2023/01/16 06:08:19;;;;;;;132.73;53.80;;;1.20;99.90;;;;;;10406055;28;20033;-80
2023/01/16 06:13:19;;;;;;;130.20;53.83;;;1.20;99.90;;;;;;10404945;28;20136;-79
2023/01/16 06:18:20;;;;;;;197.53;79.30;;;1.20;99.90;;;;;;10404879;28;20025;-81
2023/01/16 06:23:20;;;;;;;168.30;76.77;;;1.20;99.90;;;;;;10404645;28;20040;-79
2023/01/16 06:28:21;;;;;;;149.93;63.80;;;1.20;99.90;;;;;;10418097;28;20469;-79
2023/01/16 06:33:21;;;;;;;147.63;53.37;;;1.20;99.90;;;;;;10404123;28;20029;-79
2023/01/16 06:38:23;;;;;;;152.50;61.80;;;1.30;99.90;;;;;;10404353;28;20053;-79
2023/01/16 06:43:25;;;;;;;193.63;78.83;;;1.20;99.90;;;;;;10403817;28;20033;-78
2023/01/16 06:48:25;;;;;;;203.50;89.70;;;1.30;99.90;;;;;;10403530;28;20542;-79
2023/01/16 06:53:26;;;;;;;416.23;226.60;;;1.30;99.90;;;;;;10385224;28;20045;-80
2023/01/16 06:58:27;;;;;;;226.97;100.63;;;1.30;99.90;;;;;;10385430;28;20119;-80
2023/01/16 07:03:27;;;;;;;139.03;59.37;;;1.40;99.90;;;;;;10403020;28;20045;-81
2023/01/16 07:08:28;;;;;;;170.20;70.23;;;1.50;99.90;;;;;;10402121;28;20113;-80
2023/01/16 07:13:29;;;;;;;190.00;86.33;;;1.60;99.90;;;;;;10384842;28;20140;-81
2023/01/16 07:23:54;;;;;;;112.83;48.90;;;1.60;99.90;;;;;;10402309;28;20053;-80
2023/01/16 07:28:55;;;;;;;;;;;1.70;99.90;;;;;;10402888;28;20426;-79
2023/01/16 07:33:56;;;;;;;124.40;55.60;;;1.70;99.90;;;;;;10414948;28;20415;-80
2023/01/16 07:38:56;;;;;;;135.37;56.10;;;1.80;99.90;;;;;;10402232;28;20064;-79
2023/01/16 07:43:57;;;;;;;220.07;103.80;;;1.90;99.90;;;;;;10401646;28;20128;-79
2023/01/16 07:48:58;;;;;;;200.17;90.73;;;2.00;99.90;;;;;;10402022;28;20037;-80
2023/01/16 07:53:58;;;;;;;137.80;58.70;;;2.00;99.90;;;;;;10401657;28;20033;-80
2023/01/16 07:58:59;;;;;;;124.10;50.50;;;2.10;99.90;;;;;;10401491;28;20033;-79
2023/01/16 08:03:59;;;;;;;123.70;47.60;;;2.10;99.90;;;;;;10404667;28;20058;-80
2023/01/16 08:09:00;;;;;;;145.10;59.63;;;2.10;99.90;;;;;;10411749;28;20053;-80
2023/01/16 08:14:01;;;;;;;194.43;86.23;;;2.20;99.90;;;;;;10402051;28;20702;-80
2023/01/16 08:19:02;;;;;;;161.37;65.80;;;2.20;99.90;;;;;;10409322;28;20476;-79
2023/01/16 08:24:02;;;;;;;153.73;67.70;;;2.30;99.90;;;;;;10409176;28;20132;-80
2023/01/16 08:29:04;;;;;;;120.47;49.77;;;2.50;99.90;;;;;;10410074;28;20487;-80
2023/01/16 08:34:04;;;;;;;121.70;48.40;;;2.60;99.90;;;;;;10409147;28;20044;-80
2023/01/16 08:39:06;;;;;;;135.43;61.63;;;2.70;99.90;;;;;;10421690;28;20352;-80
2023/01/16 08:54:47;;;;;;;122.00;51.60;;;2.90;99.90;;;;;;10408812;28;20044;-82
2023/01/16 08:59:47;;;;;;;115.67;50.87;;;3.00;99.90;;;;;;10408198;28;20045;-81
2023/01/16 09:04:48;;;;;;;135.77;63.30;;;3.00;99.90;;;;;;10407788;28;20619;-80
2023/01/16 09:09:49;;;;;;;144.70;64.87;;;3.10;99.90;;;;;;10406572;28;20045;-80
2023/01/16 09:14:50;;;;;;;121.37;49.07;;;3.10;99.90;;;;;;10407554;28;20017;-81
2023/01/16 09:19:51;;;;;;;191.60;96.00;;;3.10;99.90;;;;;;10406840;28;20073;-81
2023/01/16 09:24:52;;;;;;;158.20;65.37;;;3.30;99.90;;;;;;10405800;28;20041;-78
2023/01/16 09:29:53;;;;;;;138.37;70.23;;;3.50;99.90;;;;;;10406551;28;20033;-79
2023/01/16 09:34:53;;;;;;;118.40;49.13;;;3.80;99.90;;;;;;10406562;28;20473;-80
2023/01/16 09:39:54;;;;;;;103.93;44.13;;;4.00;99.90;;;;;;10406555;28;20037;-79
2023/01/16 09:44:59;;;;;;;95.70;42.67;;;4.20;99.90;;;;;;10405773;28;20048;-81
2023/01/16 09:50:04;;;;;;;68.13;30.88;;;4.30;99.90;;;;;;10396252;28;20033;-79
2023/01/16 10:00:37;;;;;;;95.13;54.30;;;4.40;99.90;;;;;;10393537;28;20041;-80
2023/01/16 10:05:54;;;;;;;98.43;58.77;;;4.40;99.90;;;;;;10405180;28;20042;-80
2023/01/16 10:11:18;;;;;;;98.87;48.80;;;4.40;99.90;;;;;;10404640;28;20057;-79
2023/01/16 10:16:36;;;;;;;117.00;47.97;;;4.50;99.90;;;;;;10404915;28;20737;-80
2023/01/16 10:21:53;;;;;;;70.33;32.50;;;4.60;99.90;;;;;;10404851;28;20037;-80
2023/01/16 10:26:58;;;;;;;129.03;51.33;;;4.70;99.90;;;;;;10404487;28;20069;-80
2023/01/16 10:32:32;;;;;;;758.67;355.50;;;4.90;99.90;;;;;;10404786;28;20125;-80
2023/01/16 10:37:35;;;;;;;349.77;136.23;;;4.90;99.90;;;;;;10403797;28;20022;-80
2023/01/16 10:53:15;;;;;;;57.63;28.77;;;5.40;99.90;;;;;;10402589;28;20096;-81
2023/01/16 10:58:31;;;;;;;43.90;21.73;;;5.40;99.90;;;;;;10402836;28;20124;-81
2023/01/16 11:03:35;;;;;;;36.30;17.97;;;5.30;99.90;;;;;;10402830;28;20552;-80
2023/01/16 11:08:36;;;;;;;36.40;17.57;;;5.30;99.90;;;;;;10403820;28;20220;-81
2023/01/16 11:19:17;;;;;;;41.43;17.83;;;5.20;99.90;;;;;;10402638;28;20080;-81
2023/01/16 11:24:26;;;;;;;79.67;35.33;;;5.30;99.90;;;;;;10402596;28;20037;-80
2023/01/16 11:29:33;;;;;;;78.53;32.63;;;5.40;99.90;;;;;;10415478;28;20038;-80
2023/01/16 11:34:37;;;;;;;50.57;24.43;;;5.60;99.90;;;;;;10402760;28;20037;-80
2023/01/16 11:39:39;;;;;;;52.53;27.80;;;5.70;99.90;;;;;;10401974;28;20120;-81
2023/01/16 11:49:59;;;;;;;35.77;16.87;;;5.80;99.90;;;;;;10400842;28;20037;-81
2023/01/16 11:55:04;;;;;;;23.33;11.33;;;5.80;99.90;;;;;;10401164;28;20489;-82
2023/01/16 12:00:39;;;;;;;27.00;11.53;;;5.80;99.90;;;;;;10401526;28;20022;-81
2023/01/16 12:05:54;;;;;;;25.07;10.90;;;6.00;99.90;;;;;;10401131;28;20040;-80
2023/01/16 12:11:08;;;;;;;39.67;17.33;;;6.10;99.90;;;;;;10401352;28;20050;-81
2023/01/16 12:16:17;;;;;;;20.03;10.40;;;6.10;99.90;;;;;;10401256;28;20057;-80
2023/01/16 12:21:31;;;;;;;27.53;11.80;;;6.20;99.90;;;;;;10401045;28;20082;-80
2023/01/16 12:26:44;;;;;;;28.07;11.80;;;6.10;99.90;;;;;;10401482;28;20041;-80
2023/01/16 12:32:18;;;;;;;24.63;10.97;;;6.10;99.90;;;;;;10401297;28;20029;-80
2023/01/16 12:37:22;;;;;;;31.20;12.60;;;6.10;99.90;;;;;;10401363;28;20528;-80
2023/01/16 12:48:36;;;;;;;33.03;13.53;;;6.20;99.90;;;;;;10400587;28;20033;-82
2023/01/16 12:54:07;;;;;;;24.33;11.37;;;6.10;99.90;;;;;;10400815;28;20033;-81
2023/01/16 12:59:18;;;;;;;22.37;9.90;;;5.80;99.90;;;;;;10399771;28;20485;-81
2023/01/16 13:04:37;;;;;;;21.70;10.87;;;5.60;99.90;;;;;;10408027;28;20033;-81
2023/01/16 13:09:45;;;;;;;22.10;9.20;;;5.60;99.90;;;;;;10406331;28;20723;-80
2023/01/16 13:14:50;;;;;;;19.00;8.00;;;5.60;99.90;;;;;;10406136;28;20025;-78
2023/01/16 13:19:52;;;;;;;15.90;7.50;;;5.50;99.90;;;;;;10406027;28;20351;-80
2023/01/16 13:25:07;;;;;;;17.60;7.73;;;5.50;99.90;;;;;;10406782;28;20076;-79
2023/01/16 13:30:18;;;;;;;14.70;7.43;;;5.50;99.90;;;;;;10406831;28;20510;-80
2023/01/16 13:35:50;;;;;;;13.17;6.23;;;5.50;99.90;;;;;;10406834;28;20038;-80
2023/01/16 13:41:12;;;;;;;9.57;5.40;;;5.50;99.90;;;;;;10405171;28;20045;-80
2023/01/16 13:46:13;;;;;;;15.50;7.77;;;5.50;99.90;;;;;;10405186;28;20068;-80
2023/01/16 13:51:16;;;;;;;14.40;7.23;;;5.50;99.90;;;;;;10404820;28;20045;-80
2023/01/16 13:56:22;;;;;;;15.70;6.60;;;5.40;99.90;;;;;;10405240;28;20056;-81
2023/01/16 14:01:49;;;;;;;13.57;7.50;;;5.40;99.90;;;;;;10413627;28;20025;-81
2023/01/16 14:12:23;;;;;;;18.20;9.27;;;5.30;99.90;;;;;;10403764;28;20053;-80
2023/01/16 14:17:28;;;;;;;19.50;9.33;;;5.20;99.90;;;;;;10404955;28;20377;-80
2023/01/16 14:28:01;;;;;;;54.07;26.00;;;5.10;99.90;;;;;;10404236;28;20065;-81
2023/01/16 14:33:05;;;;;;;50.10;24.03;;;4.90;99.90;;;;;;10405222;28;20112;-81
2023/01/16 14:38:14;;;;;;;71.47;32.47;;;4.80;99.90;;;;;;10404314;28;20024;-79
2023/01/16 14:59:35;;;;;;;61.23;33.17;;;4.50;99.90;;;;;;10403696;28;20033;-81
2023/01/16 15:04:46;;;;;;;128.15;67.40;;;4.30;99.90;;;;;;10403296;28;20095;-82
2023/01/16 15:09:48;;;;;;;100.60;52.50;;;4.10;99.90;;;;;;10402633;28;20529;-82
2023/01/16 15:14:54;;;;;;;95.40;49.83;;;3.90;99.90;;;;;;10402837;28;20116;-83
2023/01/16 15:26:06;;;;;;;149.97;88.67;;;3.60;99.90;;;;;;10402234;28;20049;-83
2023/01/16 15:31:24;;;;;;;188.53;106.13;;;3.60;99.90;;;;;;10401528;28;20497;-83
2023/01/16 15:36:52;;;;;;;142.10;79.63;;;3.60;99.90;;;;;;10391119;28;20033;-84
2023/01/16 15:47:32;;;;;;;162.23;92.97;;;3.50;99.90;;;;;;10402357;28;20416;-82
2023/01/16 15:52:39;;;;;;;110.13;58.70;;;3.50;99.90;;;;;;10400856;28;20026;-84
2023/01/16 15:57:45;;;;;;;100.13;47.47;;;3.50;99.90;;;;;;10400786;28;20040;-83
2023/01/16 16:02:46;;;;;;;120.47;54.00;;;3.50;99.90;;;;;;10400607;28;20041;-84
2023/01/16 16:07:47;;;;;;;103.33;52.13;;;3.50;99.90;;;;;;10400078;28;20453;-83
2023/01/16 16:12:47;;;;;;;103.47;53.37;;;3.50;99.90;;;;;;10400165;28;20053;-83
2023/01/16 16:18:11;;;;;;;80.40;42.00;;;3.40;99.90;;;;;;10400634;28;20040;-85
2023/01/16 16:23:14;;;;;;;80.73;37.83;;;3.40;99.90;;;;;;10382512;28;20037;-82
2023/01/16 16:28:28;;;;;;;73.07;32.60;;;3.30;99.90;;;;;;10397885;28;20473;-81
2023/01/16 16:33:33;;;;;;;78.97;35.60;;;3.20;99.90;;;;;;10395705;28;20507;-83
2023/01/16 16:38:48;;;;;;;86.57;41.30;;;3.20;99.90;;;;;;10391199;28;20025;-83
2023/01/16 16:43:51;;;;;;;91.77;42.13;;;3.20;99.90;;;;;;10399205;28;20103;-85
2023/01/16 16:49:07;;;;;;;76.17;37.70;;;3.10;99.90;;;;;;10407565;28;20033;-83
2023/01/16 16:54:13;;;;;;;58.20;27.60;;;3.10;99.90;;;;;;10396943;28;20029;-83
2023/01/16 16:59:24;;;;;;;96.13;41.80;;;3.00;99.90;;;;;;10402168;28;20021;-83
2023/01/16 17:04:25;;;;;;;91.50;37.13;;;3.00;99.90;;;;;;10417610;28;20064;-83
2023/01/16 17:09:26;;;;;;;75.07;34.23;;;3.10;99.90;;;;;;10410259;28;20133;-83
2023/01/16 17:14:26;;;;;;;78.53;34.57;;;3.00;99.90;;;;;;10406229;28;20038;-83
2023/01/16 17:19:31;;;;;;;71.20;34.97;;;3.10;99.90;;;;;;10405920;28;20678;-84
2023/01/16 17:24:31;;;;;;;79.83;35.57;;;3.10;99.90;;;;;;10409708;28;20124;-83
2023/01/16 17:29:32;;;;;;;254.80;143.43;;;3.10;99.90;;;;;;10388237;28;20517;-84
2023/01/16 17:34:33;;;;;;;144.33;75.07;;;3.10;99.90;;;;;;10402473;28;20033;-83
2023/01/16 17:39:33;;;;;;;90.07;43.00;;;3.10;99.90;;;;;;10389223;28;20087;-84
2023/01/16 18:00:31;;;;;;;94.30;44.13;;;3.30;99.90;;;;;;10406425;28;20048;-82
2023/01/16 18:05:32;;;;;;;107.20;51.73;;;3.30;99.90;;;;;;10403480;28;20041;-81
2023/01/16 18:10:35;;;;;;;168.93;100.43;;;3.40;99.90;;;;;;10402963;28;20073;-85
2023/01/16 18:26:16;;;;;;;94.47;46.47;;;3.50;99.90;;;;;;10393233;28;20045;-83
2023/01/16 18:31:18;;;;;;;118.90;60.73;;;3.60;99.90;;;;;;10409266;28;20037;-84
2023/01/16 18:36:20;;;;;;;83.73;37.80;;;3.50;99.90;;;;;;10405742;28;20033;-82
2023/01/16 19:02:52;;;;;;;124.87;63.57;;;3.60;99.90;;;;;;10402718;28;20551;-81
2023/01/16 19:07:55;;;;;;;97.63;44.13;;;3.50;99.90;;;;;;10403157;28;20040;-82
2023/01/16 19:13:02;;;;;;;127.53;55.13;;;3.60;99.90;;;;;;10402867;28;20055;-82
2023/01/16 19:18:03;;;;;;;143.43;62.23;;;3.60;99.90;;;;;;10401632;28;20037;-82
2023/01/16 19:23:04;;;;;;;159.00;65.57;;;3.60;99.90;;;;;;10402499;28;20037;-84
2023/01/16 19:28:04;;;;;;;142.83;61.37;;;3.60;99.90;;;;;;10401737;28;20040;-82
2023/01/16 19:33:05;;;;;;;147.73;60.53;;;3.70;99.90;;;;;;10390485;28;20025;-83
2023/01/16 19:38:05;;;;;;;111.30;51.57;;;3.70;99.90;;;;;;10400335;28;20718;-83
2023/01/16 19:48:25;;;;;;;187.13;80.53;;;3.70;99.90;;;;;;10398489;28;20029;-84
2023/01/16 19:53:26;;;;;;;177.97;77.63;;;3.70;99.90;;;;;;10389624;28;20032;-82
2023/01/16 19:58:26;;;;;;;192.47;88.80;;;3.70;99.90;;;;;;10410469;28;20091;-83
2023/01/16 20:03:27;;;;;;;233.77;104.47;;;3.70;99.90;;;;;;10411990;28;20040;-83
2023/01/16 20:08:28;;;;;;;205.43;94.97;;;3.70;99.90;;;;;;10401256;28;20041;-85
2023/01/16 20:13:28;;;;;;;174.93;78.83;;;3.70;99.90;;;;;;10400942;28;20048;-82
2023/01/16 20:18:31;;;;;;;172.10;76.93;;;3.80;99.90;;;;;;10399861;28;20034;-82
2023/01/16 20:23:31;;;;;;;234.73;111.27;;;3.80;99.90;;;;;;10384423;28;20059;-82
2023/01/16 20:28:35;;;;;;;144.83;63.03;;;3.80;99.90;;;;;;10408279;28;20046;-83
2023/01/16 20:33:35;;;;;;;147.67;61.63;;;3.90;99.90;;;;;;10399724;28;20045;-83
2023/01/16 20:38:39;;;;;;;150.07;63.63;;;3.90;99.90;;;;;;10383419;28;20033;-83
2023/01/16 20:49:00;;;;;;;105.80;45.43;;;3.90;99.90;;;;;;10405336;28;20072;-84
2023/01/16 20:54:04;;;;;;;98.13;43.97;;;4.00;99.90;;;;;;10398805;28;20040;-82
2023/01/16 20:59:05;;;;;;;103.50;46.20;;;4.00;99.90;;;;;;10398686;28;20145;-84
2023/01/16 21:04:06;;;;;;;107.23;48.83;;;4.00;99.90;;;;;;10400304;28;20546;-84
2023/01/16 21:09:07;;;;;;;115.23;52.07;;;4.00;99.90;;;;;;10399425;28;20484;-82
2023/01/16 21:14:11;;;;;;;143.57;69.43;;;4.00;99.90;;;;;;10380967;28;20669;-82
2023/01/16 21:24:31;;;;;;;114.37;51.97;;;4.00;99.90;;;;;;10406416;28;20049;-83
2023/01/16 21:29:34;;;;;;;102.13;47.13;;;3.90;99.90;;;;;;10406891;28;20465;-83
2023/01/16 21:34:36;;;;;;;141.03;60.40;;;3.90;99.90;;;;;;10407294;28;20590;-82
2023/01/16 21:39:37;;;;;;;158.10;72.37;;;3.90;99.90;;;;;;10406223;28;20037;-82
2023/01/16 21:49:56;;;;;;;134.27;59.23;;;3.80;99.90;;;;;;10418687;28;20037;-82
2023/01/16 21:54:57;;;;;;;109.73;51.67;;;3.80;99.90;;;;;;10405675;28;20473;-82
2023/01/16 21:59:57;;;;;;;113.23;47.20;;;3.80;99.90;;;;;;10405933;28;20047;-82
2023/01/16 22:04:58;;;;;;;109.30;49.80;;;3.80;99.90;;;;;;10407350;28;20614;-82
2023/01/16 22:09:58;;;;;;;79.60;37.97;;;3.80;99.90;;;;;;10404915;28;20048;-84
2023/01/16 22:25:25;;;;;;;77.22;35.95;;;3.80;99.90;;;;;;10404226;28;20041;-82
2023/01/16 22:30:26;;;;;;;84.57;36.60;;;3.80;99.90;;;;;;10404787;28;20021;-82
2023/01/16 22:35:26;;;;;;;82.47;38.33;;;3.80;99.90;;;;;;10402910;28;20763;-83
2023/01/16 22:40:27;;;;;;;76.70;36.60;;;3.70;99.90;;;;;;10397516;28;20021;-82
2023/01/16 22:50:46;;;;;;;83.57;39.37;;;3.80;99.90;;;;;;10403038;28;20551;-83
2023/01/16 22:55:53;;;;;;;82.70;38.40;;;3.80;99.90;;;;;;10403071;28;20033;-82
2023/01/16 23:00:53;;;;;;;76.37;35.10;;;3.80;99.90;;;;;;10403513;28;20392;-83
2023/01/16 23:05:54;;;;;;;85.17;39.30;;;3.80;99.90;;;;;;10402942;28;20040;-82
2023/01/16 23:11:31;;;;;;;97.97;42.37;;;3.80;99.90;;;;;;10421269;28;20400;-83
2023/01/16 23:16:34;;;;;;;122.90;50.60;;;3.80;99.90;;;;;;10383289;28;20095;-82
2023/01/16 23:21:35;;;;;;;120.00;52.50;;;3.80;99.90;;;;;;10401149;28;20037;-82
2023/01/16 23:26:36;;;;;;;97.63;45.03;;;3.70;99.90;;;;;;10414231;28;20107;-82
2023/01/16 23:31:38;;;;;;;95.77;44.43;;;3.70;99.90;;;;;;10411567;28;20858;-82
2023/01/16 23:36:39;;;;;;;100.53;47.33;;;3.70;99.90;;;;;;10386548;28;20037;-82
2023/01/16 23:47:01;;;;;;;92.17;42.57;;;3.70;99.90;;;;;;10400057;28;20404;-83
2023/01/16 23:52:05;;;;;;;76.90;38.20;;;3.60;99.90;;;;;;10401700;28;20041;-82
2023/01/16 23:57:26;;;;;;;81.47;37.03;;;3.70;99.90;;;;;;10384374;28;20033;-84
